sensor_id;sensor_type;location;lat;lon;timestamp;temperature;humidity
24146;DHT22;12308;50.948;4.706;2023-02-28T00:01:12;1.90;99.90
24146;DHT22;12308;50.948;4.706;2023-02-28T00:03:38;1.80;99.90
24146;DHT22;12308;50.948;4.706;2023-02-28T00:06:05;1.80;99.90
24146;DHT22;12308;50.948;4.706;2023-02-28T00:08:31;1.80;99.90
24146;DHT22;12308;50.948;4.706;2023-02-28T00:11:03;1.80;99.90
24146;DHT22;12308;50.948;4.706;2023-02-28T00:13:30;1.80;99.90
24146;DHT22;12308;50.948;4.706;2023-02-28T00:16:04;1.80;99.90
24146;DHT22;12308;50.948;4.706;2023-02-28T00:18:31;1.80;99.90
24146;DHT22;12308;50.948;4.706;2023-02-28T00:20:57;1.80;99.90
24146;DHT22;12308;50.948;4.706;2023-02-28T00:23:23;1.60;99.90
24146;DHT22;12308;50.948;4.706;2023-02-28T00:25:50;1.60;99.90
24146;DHT22;12308;50.948;4.706;2023-02-28T00:28:16;1.50;99.90
24146;DHT22;12308;50.948;4.706;2023-02-28T00:30:42;1.50;99.90
24146;DHT22;12308;50.948;4.706;2023-02-28T00:33:08;1.40;99.90
24146;DHT22;12308;50.948;4.706;2023-02-28T00:35:34;1.50;99.90
24146;DHT22;12308;50.948;4.706;2023-02-28T00:37:59;1.60;99.90
24146;DHT22;12308;50.948;4.706;2023-02-28T00:40:25;1.60;99.90
24146;DHT22;12308;50.948;4.706;2023-02-28T00:42:51;1.70;99.90
24146;DHT22;12308;50.948;4.706;2023-02-28T00:45:16;1.70;99.90
24146;DHT22;12308;50.948;4.706;2023-02-28T00:47:42;1.60;99.90
24146;DHT22;12308;50.948;4.706;2023-02-28T00:50:08;1.50;99.90
24146;DHT22;12308;50.948;4.706;2023-02-28T00:52:34;1.50;99.90
24146;DHT22;12308;50.948;4.706;2023-02-28T00:55:00;1.40;99.90
24146;DHT22;12308;50.948;4.706;2023-02-28T00:57:26;1.40;99.90
24146;DHT22;12308;50.948;4.706;2023-02-28T00:59:52;1.50;99.90
24146;DHT22;12308;50.948;4.706;2023-02-28T01:02:20;1.50;99.90
24146;DHT22;12308;50.948;4.706;2023-02-28T01:04:46;1.50;99.90
24146;DHT22;12308;50.948;4.706;2023-02-28T01:07:12;1.50;99.90
24146;DHT22;12308;50.948;4.706;2023-02-28T01:09:39;1.50;99.90
24146;DHT22;12308;50.948;4.706;2023-02-28T01:12:04;1.60;99.90
24146;DHT22;12308;50.948;4.706;2023-02-28T01:14:30;1.50;99.90
24146;DHT22;12308;50.948;4.706;2023-02-28T01:16:57;1.60;99.90
24146;DHT22;12308;50.948;4.706;2023-02-28T01:19:22;1.50;99.90
24146;DHT22;12308;50.948;4.706;2023-02-28T01:21:48;1.40;99.90
24146;DHT22;12308;50.948;4.706;2023-02-28T01:24:14;1.30;99.90
24146;DHT22;12308;50.948;4.706;2023-02-28T01:26:39;1.20;99.90
24146;DHT22;12308;50.948;4.706;2023-02-28T01:29:05;1.20;99.90
24146;DHT22;12308;50.948;4.706;2023-02-28T01:31:31;1.10;99.90
24146;DHT22;12308;50.948;4.706;2023-02-28T01:33:56;0.90;99.90
24146;DHT22;12308;50.948;4.706;2023-02-28T01:36:23;0.90;99.90
24146;DHT22;12308;50.948;4.706;2023-02-28T01:38:49;0.90;99.90
24146;DHT22;12308;50.948;4.706;2023-02-28T01:41:27;1.00;99.90
24146;DHT22;12308;50.948;4.706;2023-02-28T01:44:05;1.00;99.90
24146;DHT22;12308;50.948;4.706;2023-02-28T01:46:35;1.00;99.90
24146;DHT22;12308;50.948;4.706;2023-02-28T01:49:08;1.00;99.90
24146;DHT22;12308;50.948;4.706;2023-02-28T01:54:07;1.20;99.90
24146;DHT22;12308;50.948;4.706;2023-02-28T01:56:41;1.10;99.90
24146;DHT22;12308;50.948;4.706;2023-02-28T01:59:09;1.10;99.90
24146;DHT22;12308;50.948;4.706;2023-02-28T02:01:36;1.10;99.90
24146;DHT22;12308;50.948;4.706;2023-02-28T02:04:02;1.10;99.90
24146;DHT22;12308;50.948;4.706;2023-02-28T02:06:34;1.00;99.90
24146;DHT22;12308;50.948;4.706;2023-02-28T02:09:01;1.00;99.90
24146;DHT22;12308;50.948;4.706;2023-02-28T02:11:28;1.00;99.90
24146;DHT22;12308;50.948;4.706;2023-02-28T02:41:23;0.70;99.90
24146;DHT22;12308;50.948;4.706;2023-02-28T02:43:51;0.80;99.90
24146;DHT22;12308;50.948;4.706;2023-02-28T02:46:42;0.90;99.90
24146;DHT22;12308;50.948;4.706;2023-02-28T02:49:33;0.90;99.90
24146;DHT22;12308;50.948;4.706;2023-02-28T02:52:01;1.10;99.90
24146;DHT22;12308;50.948;4.706;2023-02-28T02:54:31;1.10;99.90
24146;DHT22;12308;50.948;4.706;2023-02-28T02:57:03;0.90;99.90
24146;DHT22;12308;50.948;4.706;2023-02-28T02:59:31;0.70;99.90
24146;DHT22;12308;50.948;4.706;2023-02-28T03:02:00;0.60;99.90
24146;DHT22;12308;50.948;4.706;2023-02-28T03:04:31;0.60;99.90
24146;DHT22;12308;50.948;4.706;2023-02-28T03:06:58;0.60;99.90
24146;DHT22;12308;50.948;4.706;2023-02-28T03:09:25;0.60;99.90
24146;DHT22;12308;50.948;4.706;2023-02-28T03:11:54;0.40;99.90
24146;DHT22;12308;50.948;4.706;2023-02-28T03:27:55;0.10;99.90
24146;DHT22;12308;50.948;4.706;2023-02-28T03:30:51;-0.10;99.90
24146;DHT22;12308;50.948;4.706;2023-02-28T03:36:02;0.00;99.90
24146;DHT22;12308;50.948;4.706;2023-02-28T03:38:46;0.00;99.90
24146;DHT22;12308;50.948;4.706;2023-02-28T03:41:14;0.00;99.90
24146;DHT22;12308;50.948;4.706;2023-02-28T03:43:45;-0.10;99.90
24146;DHT22;12308;50.948;4.706;2023-02-28T03:46:13;-0.10;99.90
24146;DHT22;12308;50.948;4.706;2023-02-28T03:48:46;-0.20;99.90
24146;DHT22;12308;50.948;4.706;2023-02-28T03:51:17;-0.30;99.90
24146;DHT22;12308;50.948;4.706;2023-02-28T03:53:59;-0.30;99.90
24146;DHT22;12308;50.948;4.706;2023-02-28T03:56:32;-0.20;99.90
24146;DHT22;12308;50.948;4.706;2023-02-28T04:01:57;-0.30;99.90
24146;DHT22;12308;50.948;4.706;2023-02-28T04:04:24;-0.20;99.90
24146;DHT22;12308;50.948;4.706;2023-02-28T04:06:53;-0.20;99.90
24146;DHT22;12308;50.948;4.706;2023-02-28T04:09:26;-0.20;99.90
24146;DHT22;12308;50.948;4.706;2023-02-28T04:11:53;-0.20;99.90
24146;DHT22;12308;50.948;4.706;2023-02-28T04:14:21;-0.10;99.90
24146;DHT22;12308;50.948;4.706;2023-02-28T04:16:47;0.00;99.90
24146;DHT22;12308;50.948;4.706;2023-02-28T04:19:14;0.10;99.90
24146;DHT22;12308;50.948;4.706;2023-02-28T04:21:40;0.30;99.90
24146;DHT22;12308;50.948;4.706;2023-02-28T04:24:08;0.50;99.90
24146;DHT22;12308;50.948;4.706;2023-02-28T04:26:40;0.50;99.90
24146;DHT22;12308;50.948;4.706;2023-02-28T04:29:06;0.40;99.90
24146;DHT22;12308;50.948;4.706;2023-02-28T04:31:33;0.40;99.90
24146;DHT22;12308;50.948;4.706;2023-02-28T04:33:59;0.40;99.90
24146;DHT22;12308;50.948;4.706;2023-02-28T04:36:25;0.40;99.90
24146;DHT22;12308;50.948;4.706;2023-02-28T04:38:51;0.40;99.90
24146;DHT22;12308;50.948;4.706;2023-02-28T04:41:17;0.50;99.90
24146;DHT22;12308;50.948;4.706;2023-02-28T04:43:43;0.40;99.90
24146;DHT22;12308;50.948;4.706;2023-02-28T04:46:09;0.50;99.90
24146;DHT22;12308;50.948;4.706;2023-02-28T04:48:37;0.70;99.90
24146;DHT22;12308;50.948;4.706;2023-02-28T04:51:08;0.80;99.90
24146;DHT22;12308;50.948;4.706;2023-02-28T04:53:36;0.80;99.90
24146;DHT22;12308;50.948;4.706;2023-02-28T04:56:02;0.70;99.90
24146;DHT22;12308;50.948;4.706;2023-02-28T04:58:28;0.60;99.90
24146;DHT22;12308;50.948;4.706;2023-02-28T05:00:54;0.50;99.90
24146;DHT22;12308;50.948;4.706;2023-02-28T05:03:26;0.60;99.90
24146;DHT22;12308;50.948;4.706;2023-02-28T05:05:51;0.60;99.90
24146;DHT22;12308;50.948;4.706;2023-02-28T05:08:17;0.80;99.90
24146;DHT22;12308;50.948;4.706;2023-02-28T05:10:42;1.30;99.90
24146;DHT22;12308;50.948;4.706;2023-02-28T05:13:13;1.30;99.90
24146;DHT22;12308;50.948;4.706;2023-02-28T05:15:38;1.30;99.90
24146;DHT22;12308;50.948;4.706;2023-02-28T05:18:04;1.10;99.90
24146;DHT22;12308;50.948;4.706;2023-02-28T05:20:30;0.80;99.90
24146;DHT22;12308;50.948;4.706;2023-02-28T05:22:57;0.90;99.90
24146;DHT22;12308;50.948;4.706;2023-02-28T05:25:23;0.80;99.90
24146;DHT22;12308;50.948;4.706;2023-02-28T05:27:49;0.90;99.90
24146;DHT22;12308;50.948;4.706;2023-02-28T05:30:15;0.80;99.90
24146;DHT22;12308;50.948;4.706;2023-02-28T05:32:41;1.00;99.90
24146;DHT22;12308;50.948;4.706;2023-02-28T05:35:11;1.00;99.90
24146;DHT22;12308;50.948;4.706;2023-02-28T05:37:38;1.00;99.90
24146;DHT22;12308;50.948;4.706;2023-02-28T05:40:05;1.00;99.90
24146;DHT22;12308;50.948;4.706;2023-02-28T05:42:32;0.90;99.90
24146;DHT22;12308;50.948;4.706;2023-02-28T05:44:58;0.80;99.90
24146;DHT22;12308;50.948;4.706;2023-02-28T05:47:24;0.90;99.90
24146;DHT22;12308;50.948;4.706;2023-02-28T05:49:50;0.80;99.90
24146;DHT22;12308;50.948;4.706;2023-02-28T05:52:15;0.70;99.90
24146;DHT22;12308;50.948;4.706;2023-02-28T05:54:41;0.80;99.90
24146;DHT22;12308;50.948;4.706;2023-02-28T05:57:06;0.90;99.90
24146;DHT22;12308;50.948;4.706;2023-02-28T05:59:32;1.30;99.90
24146;DHT22;12308;50.948;4.706;2023-02-28T06:01:58;1.40;99.90
24146;DHT22;12308;50.948;4.706;2023-02-28T06:04:24;1.60;99.90
24146;DHT22;12308;50.948;4.706;2023-02-28T06:06:50;1.50;99.90
24146;DHT22;12308;50.948;4.706;2023-02-28T06:09:17;1.30;99.90
24146;DHT22;12308;50.948;4.706;2023-02-28T06:11:43;1.50;99.90
24146;DHT22;12308;50.948;4.706;2023-02-28T06:14:15;1.60;99.90
24146;DHT22;12308;50.948;4.706;2023-02-28T06:16:41;1.70;99.90
24146;DHT22;12308;50.948;4.706;2023-02-28T06:19:08;1.70;99.90
24146;DHT22;12308;50.948;4.706;2023-02-28T06:21:34;1.70;99.90
24146;DHT22;12308;50.948;4.706;2023-02-28T06:23:59;1.60;99.90
24146;DHT22;12308;50.948;4.706;2023-02-28T06:26:25;1.40;99.90
24146;DHT22;12308;50.948;4.706;2023-02-28T06:28:51;1.50;99.90
24146;DHT22;12308;50.948;4.706;2023-02-28T06:31:17;1.40;99.90
24146;DHT22;12308;50.948;4.706;2023-02-28T06:33:44;1.30;99.90
24146;DHT22;12308;50.948;4.706;2023-02-28T06:36:12;1.40;99.90
24146;DHT22;12308;50.948;4.706;2023-02-28T06:38:39;1.40;99.90
24146;DHT22;12308;50.948;4.706;2023-02-28T06:41:05;1.30;99.90
24146;DHT22;12308;50.948;4.706;2023-02-28T06:43:34;1.30;99.90
24146;DHT22;12308;50.948;4.706;2023-02-28T06:46:02;1.20;99.90
24146;DHT22;12308;50.948;4.706;2023-02-28T06:48:28;1.30;99.90
24146;DHT22;12308;50.948;4.706;2023-02-28T06:51:09;1.50;99.90
24146;DHT22;12308;50.948;4.706;2023-02-28T06:53:35;1.40;99.90
24146;DHT22;12308;50.948;4.706;2023-02-28T06:56:07;1.60;99.90
24146;DHT22;12308;50.948;4.706;2023-02-28T06:58:33;1.50;99.90
24146;DHT22;12308;50.948;4.706;2023-02-28T07:00:59;1.50;99.90
24146;DHT22;12308;50.948;4.706;2023-02-28T07:03:25;1.50;99.90
24146;DHT22;12308;50.948;4.706;2023-02-28T07:05:51;1.60;99.90
24146;DHT22;12308;50.948;4.706;2023-02-28T07:08:17;1.50;99.90
24146;DHT22;12308;50.948;4.706;2023-02-28T07:10:42;1.40;99.90
24146;DHT22;12308;50.948;4.706;2023-02-28T07:13:09;1.50;99.90
24146;DHT22;12308;50.948;4.706;2023-02-28T07:15:37;1.50;99.90
24146;DHT22;12308;50.948;4.706;2023-02-28T07:18:04;1.50;99.90
24146;DHT22;12308;50.948;4.706;2023-02-28T07:20:30;1.50;99.90
24146;DHT22;12308;50.948;4.706;2023-02-28T07:22:55;1.60;99.90
24146;DHT22;12308;50.948;4.706;2023-02-28T07:25:28;1.60;99.90
24146;DHT22;12308;50.948;4.706;2023-02-28T07:27:55;1.60;99.90
24146;DHT22;12308;50.948;4.706;2023-02-28T07:30:21;1.80;99.90
24146;DHT22;12308;50.948;4.706;2023-02-28T07:32:47;1.80;99.90
24146;DHT22;12308;50.948;4.706;2023-02-28T07:35:14;1.90;99.90
24146;DHT22;12308;50.948;4.706;2023-02-28T07:37:41;1.80;99.90
24146;DHT22;12308;50.948;4.706;2023-02-28T07:40:09;1.80;99.90
24146;DHT22;12308;50.948;4.706;2023-02-28T07:42:37;1.80;99.90
24146;DHT22;12308;50.948;4.706;2023-02-28T07:45:04;1.80;99.90
24146;DHT22;12308;50.948;4.706;2023-02-28T07:47:30;1.80;99.90
24146;DHT22;12308;50.948;4.706;2023-02-28T07:49:57;1.80;99.90
24146;DHT22;12308;50.948;4.706;2023-02-28T07:52:22;1.90;99.90
24146;DHT22;12308;50.948;4.706;2023-02-28T07:54:51;2.10;99.90
24146;DHT22;12308;50.948;4.706;2023-02-28T07:57:18;2.00;99.90
24146;DHT22;12308;50.948;4.706;2023-02-28T07:59:43;2.00;99.90
24146;DHT22;12308;50.948;4.706;2023-02-28T08:02:18;2.10;99.90
24146;DHT22;12308;50.948;4.706;2023-02-28T08:04:44;2.10;99.90
24146;DHT22;12308;50.948;4.706;2023-02-28T08:07:12;2.20;99.90
24146;DHT22;12308;50.948;4.706;2023-02-28T08:09:39;2.20;99.90
24146;DHT22;12308;50.948;4.706;2023-02-28T08:12:05;2.20;99.90
24146;DHT22;12308;50.948;4.706;2023-02-28T08:14:31;2.20;99.90
24146;DHT22;12308;50.948;4.706;2023-02-28T08:16:57;2.30;99.90
24146;DHT22;12308;50.948;4.706;2023-02-28T08:19:22;2.30;99.90
24146;DHT22;12308;50.948;4.706;2023-02-28T08:21:48;2.30;99.90
24146;DHT22;12308;50.948;4.706;2023-02-28T08:24:14;2.30;99.90
24146;DHT22;12308;50.948;4.706;2023-02-28T08:26:39;2.40;99.90
24146;DHT22;12308;50.948;4.706;2023-02-28T08:29:05;2.50;99.90
24146;DHT22;12308;50.948;4.706;2023-02-28T08:31:31;2.60;99.90
24146;DHT22;12308;50.948;4.706;2023-02-28T08:33:56;2.70;99.90
24146;DHT22;12308;50.948;4.706;2023-02-28T08:36:24;2.80;99.90
24146;DHT22;12308;50.948;4.706;2023-02-28T08:38:50;2.80;99.90
24146;DHT22;12308;50.948;4.706;2023-02-28T08:41:16;2.80;99.90
24146;DHT22;12308;50.948;4.706;2023-02-28T08:43:42;2.90;99.90
24146;DHT22;12308;50.948;4.706;2023-02-28T08:46:10;2.80;99.90
24146;DHT22;12308;50.948;4.706;2023-02-28T08:48:36;3.00;99.90
24146;DHT22;12308;50.948;4.706;2023-02-28T08:51:08;3.00;99.90
24146;DHT22;12308;50.948;4.706;2023-02-28T08:53:37;3.00;99.90
24146;DHT22;12308;50.948;4.706;2023-02-28T08:56:11;3.00;99.90
24146;DHT22;12308;50.948;4.706;2023-02-28T08:58:37;3.00;99.90
24146;DHT22;12308;50.948;4.706;2023-02-28T09:01:27;3.10;99.90
24146;DHT22;12308;50.948;4.706;2023-02-28T09:03:54;3.10;99.90
24146;DHT22;12308;50.948;4.706;2023-02-28T09:06:21;3.30;99.90
24146;DHT22;12308;50.948;4.706;2023-02-28T09:08:47;3.30;99.90
24146;DHT22;12308;50.948;4.706;2023-02-28T09:11:13;3.40;99.90
24146;DHT22;12308;50.948;4.706;2023-02-28T09:13:39;3.40;99.90
24146;DHT22;12308;50.948;4.706;2023-02-28T09:16:07;3.40;99.90
24146;DHT22;12308;50.948;4.706;2023-02-28T09:18:35;3.40;99.90
24146;DHT22;12308;50.948;4.706;2023-02-28T09:21:07;3.50;99.90
24146;DHT22;12308;50.948;4.706;2023-02-28T09:23:33;3.50;99.90
24146;DHT22;12308;50.948;4.706;2023-02-28T09:25:59;3.40;99.90
24146;DHT22;12308;50.948;4.706;2023-02-28T09:28:24;3.50;99.90
24146;DHT22;12308;50.948;4.706;2023-02-28T09:30:53;3.60;99.90
24146;DHT22;12308;50.948;4.706;2023-02-28T09:33:20;3.70;99.90
24146;DHT22;12308;50.948;4.706;2023-02-28T09:35:50;3.80;99.90
24146;DHT22;12308;50.948;4.706;2023-02-28T09:38:17;3.90;99.90
24146;DHT22;12308;50.948;4.706;2023-02-28T09:40:52;3.90;99.90
24146;DHT22;12308;50.948;4.706;2023-02-28T09:43:22;3.80;99.90
24146;DHT22;12308;50.948;4.706;2023-02-28T09:45:55;3.90;99.90
24146;DHT22;12308;50.948;4.706;2023-02-28T09:48:33;4.00;99.90
24146;DHT22;12308;50.948;4.706;2023-02-28T09:53:53;4.20;99.90
24146;DHT22;12308;50.948;4.706;2023-02-28T09:56:24;4.10;99.90
24146;DHT22;12308;50.948;4.706;2023-02-28T10:04:16;4.10;99.90
24146;DHT22;12308;50.948;4.706;2023-02-28T10:06:49;4.30;99.90
24146;DHT22;12308;50.948;4.706;2023-02-28T10:09:28;4.40;99.90
24146;DHT22;12308;50.948;4.706;2023-02-28T10:12:00;4.20;99.90
24146;DHT22;12308;50.948;4.706;2023-02-28T10:14:29;4.30;99.90
24146;DHT22;12308;50.948;4.706;2023-02-28T10:17:03;4.40;99.90
24146;DHT22;12308;50.948;4.706;2023-02-28T10:25:26;4.70;99.90
24146;DHT22;12308;50.948;4.706;2023-02-28T10:28:00;4.70;99.90
24146;DHT22;12308;50.948;4.706;2023-02-28T10:30:27;4.50;99.90
24146;DHT22;12308;50.948;4.706;2023-02-28T10:32:53;4.60;99.90
24146;DHT22;12308;50.948;4.706;2023-02-28T10:35:21;4.50;99.90
24146;DHT22;12308;50.948;4.706;2023-02-28T10:37:50;4.50;99.90
24146;DHT22;12308;50.948;4.706;2023-02-28T10:45:21;4.70;99.90
24146;DHT22;12308;50.948;4.706;2023-02-28T10:53:10;4.90;99.90
24146;DHT22;12308;50.948;4.706;2023-02-28T10:55:40;4.90;99.90
24146;DHT22;12308;50.948;4.706;2023-02-28T10:58:21;4.80;99.90
24146;DHT22;12308;50.948;4.706;2023-02-28T11:00:47;4.60;99.90
24146;DHT22;12308;50.948;4.706;2023-02-28T11:03:33;4.70;99.90
24146;DHT22;12308;50.948;4.706;2023-02-28T11:06:05;4.80;99.90
24146;DHT22;12308;50.948;4.706;2023-02-28T11:08:32;4.80;99.90
24146;DHT22;12308;50.948;4.706;2023-02-28T11:11:01;4.90;99.90
24146;DHT22;12308;50.948;4.706;2023-02-28T11:13:34;4.90;99.90
24146;DHT22;12308;50.948;4.706;2023-02-28T11:16:04;5.00;99.90
24146;DHT22;12308;50.948;4.706;2023-02-28T11:21:09;5.30;99.90
24146;DHT22;12308;50.948;4.706;2023-02-28T11:23:41;5.30;99.90
24146;DHT22;12308;50.948;4.706;2023-02-28T11:26:08;5.30;99.90
24146;DHT22;12308;50.948;4.706;2023-02-28T11:28:41;5.10;99.90
24146;DHT22;12308;50.948;4.706;2023-02-28T11:33:55;5.20;99.90
24146;DHT22;12308;50.948;4.706;2023-02-28T11:36:22;5.00;99.90
24146;DHT22;12308;50.948;4.706;2023-02-28T11:38:50;5.20;99.90
24146;DHT22;12308;50.948;4.706;2023-02-28T11:49:41;5.20;99.90
24146;DHT22;12308;50.948;4.706;2023-02-28T11:52:54;5.30;99.90
24146;DHT22;12308;50.948;4.706;2023-02-28T11:55:24;5.30;99.90
24146;DHT22;12308;50.948;4.706;2023-02-28T12:00:53;5.60;99.90
24146;DHT22;12308;50.948;4.706;2023-02-28T12:06:33;5.70;99.90
24146;DHT22;12308;50.948;4.706;2023-02-28T12:12:17;5.50;99.90
24146;DHT22;12308;50.948;4.706;2023-02-28T12:15:02;5.50;99.90
24146;DHT22;12308;50.948;4.706;2023-02-28T12:17:46;5.50;99.90
24146;DHT22;12308;50.948;4.706;2023-02-28T12:28:15;5.70;99.90
24146;DHT22;12308;50.948;4.706;2023-02-28T12:31:11;5.80;99.90
24146;DHT22;12308;50.948;4.706;2023-02-28T12:33:40;5.90;99.90
24146;DHT22;12308;50.948;4.706;2023-02-28T12:36:15;5.90;99.90
24146;DHT22;12308;50.948;4.706;2023-02-28T12:38:56;5.80;99.90
24146;DHT22;12308;50.948;4.706;2023-02-28T12:41:44;5.80;99.90
24146;DHT22;12308;50.948;4.706;2023-02-28T12:44:35;5.80;99.90
24146;DHT22;12308;50.948;4.706;2023-02-28T12:47:03;5.90;99.90
24146;DHT22;12308;50.948;4.706;2023-02-28T12:49:45;6.00;99.90
24146;DHT22;12308;50.948;4.706;2023-02-28T12:52:15;5.90;99.90
24146;DHT22;12308;50.948;4.706;2023-02-28T12:55:02;5.90;99.90
24146;DHT22;12308;50.948;4.706;2023-02-28T12:58:18;6.00;99.90
24146;DHT22;12308;50.948;4.706;2023-02-28T13:00:42;6.00;99.90
24146;DHT22;12308;50.948;4.706;2023-02-28T13:11:39;6.00;99.90
24146;DHT22;12308;50.948;4.706;2023-02-28T13:14:20;6.00;99.90
24146;DHT22;12308;50.948;4.706;2023-02-28T13:19:20;6.10;99.90
24146;DHT22;12308;50.948;4.706;2023-02-28T13:21:48;6.00;99.90
24146;DHT22;12308;50.948;4.706;2023-02-28T13:24:39;5.90;99.90
24146;DHT22;12308;50.948;4.706;2023-02-28T13:29:34;5.90;99.90
24146;DHT22;12308;50.948;4.706;2023-02-28T13:34:34;5.90;99.90
24146;DHT22;12308;50.948;4.706;2023-02-28T13:39:52;5.80;99.90
24146;DHT22;12308;50.948;4.706;2023-02-28T13:47:52;6.00;99.90
24146;DHT22;12308;50.948;4.706;2023-02-28T14:11:38;6.20;99.90
24146;DHT22;12308;50.948;4.706;2023-02-28T14:14:06;6.20;99.90
24146;DHT22;12308;50.948;4.706;2023-02-28T14:16:45;6.30;99.90
24146;DHT22;12308;50.948;4.706;2023-02-28T14:19:24;6.20;99.90
24146;DHT22;12308;50.948;4.706;2023-02-28T14:38:17;6.00;99.90
24146;DHT22;12308;50.948;4.706;2023-02-28T14:40:45;6.00;99.90
24146;DHT22;12308;50.948;4.706;2023-02-28T14:43:26;6.00;99.90
24146;DHT22;12308;50.948;4.706;2023-02-28T14:45:55;6.00;99.90
24146;DHT22;12308;50.948;4.706;2023-02-28T14:48:22;6.10;99.90
24146;DHT22;12308;50.948;4.706;2023-02-28T14:50:52;6.10;99.90
24146;DHT22;12308;50.948;4.706;2023-02-28T14:53:21;6.20;99.90
24146;DHT22;12308;50.948;4.706;2023-02-28T14:55:48;6.10;99.90
24146;DHT22;12308;50.948;4.706;2023-02-28T14:58:32;6.20;99.90
24146;DHT22;12308;50.948;4.706;2023-02-28T15:01:03;6.30;99.90
24146;DHT22;12308;50.948;4.706;2023-02-28T15:03:39;6.20;99.90
24146;DHT22;12308;50.948;4.706;2023-02-28T15:06:06;6.10;99.90
24146;DHT22;12308;50.948;4.706;2023-02-28T15:08:32;6.10;99.90
24146;DHT22;12308;50.948;4.706;2023-02-28T15:11:12;6.10;99.90
24146;DHT22;12308;50.948;4.706;2023-02-28T15:13:41;6.20;99.90
24146;DHT22;12308;50.948;4.706;2023-02-28T15:16:12;6.50;99.90
24146;DHT22;12308;50.948;4.706;2023-02-28T15:18:48;6.40;99.90
24146;DHT22;12308;50.948;4.706;2023-02-28T15:21:17;6.30;99.90
24146;DHT22;12308;50.948;4.706;2023-02-28T15:23:51;6.20;99.90
24146;DHT22;12308;50.948;4.706;2023-02-28T15:26:23;6.10;99.90
24146;DHT22;12308;50.948;4.706;2023-02-28T15:28:57;6.30;99.90
24146;DHT22;12308;50.948;4.706;2023-02-28T15:31:27;6.20;99.90
24146;DHT22;12308;50.948;4.706;2023-02-28T15:33:55;6.20;99.90
24146;DHT22;12308;50.948;4.706;2023-02-28T15:36:25;6.10;99.90
24146;DHT22;12308;50.948;4.706;2023-02-28T15:38:53;6.10;99.90
24146;DHT22;12308;50.948;4.706;2023-02-28T15:41:25;5.90;99.90
24146;DHT22;12308;50.948;4.706;2023-02-28T15:44:45;5.90;99.90
24146;DHT22;12308;50.948;4.706;2023-02-28T15:47:05;5.90;99.90
24146;DHT22;12308;50.948;4.706;2023-02-28T15:49:58;5.90;99.90
24146;DHT22;12308;50.948;4.706;2023-02-28T15:52:28;5.80;99.90
24146;DHT22;12308;50.948;4.706;2023-02-28T15:54:58;5.90;99.90
24146;DHT22;12308;50.948;4.706;2023-02-28T15:57:25;5.90;99.90
24146;DHT22;12308;50.948;4.706;2023-02-28T15:59:54;6.00;99.90
24146;DHT22;12308;50.948;4.706;2023-02-28T16:02:32;6.00;99.90
24146;DHT22;12308;50.948;4.706;2023-02-28T16:04:59;5.90;99.90
24146;DHT22;12308;50.948;4.706;2023-02-28T16:07:26;6.10;99.90
24146;DHT22;12308;50.948;4.706;2023-02-28T16:09:52;6.10;99.90
24146;DHT22;12308;50.948;4.706;2023-02-28T16:12:19;6.10;99.90
24146;DHT22;12308;50.948;4.706;2023-02-28T16:14:46;6.10;99.90
24146;DHT22;12308;50.948;4.706;2023-02-28T16:17:27;6.00;99.90
24146;DHT22;12308;50.948;4.706;2023-02-28T16:19:54;6.00;99.90
24146;DHT22;12308;50.948;4.706;2023-02-28T16:22:20;6.00;99.90
24146;DHT22;12308;50.948;4.706;2023-02-28T16:24:46;5.90;99.90
24146;DHT22;12308;50.948;4.706;2023-02-28T16:29:42;6.10;99.90
24146;DHT22;12308;50.948;4.706;2023-02-28T16:32:10;6.00;99.90
24146;DHT22;12308;50.948;4.706;2023-02-28T16:34:36;5.90;99.90
24146;DHT22;12308;50.948;4.706;2023-02-28T16:37:01;5.90;99.90
24146;DHT22;12308;50.948;4.706;2023-02-28T16:39:27;5.90;99.90
24146;DHT22;12308;50.948;4.706;2023-02-28T16:41:52;5.80;99.90
24146;DHT22;12308;50.948;4.706;2023-02-28T16:44:31;5.80;99.90
24146;DHT22;12308;50.948;4.706;2023-02-28T16:46:59;5.70;99.90
24146;DHT22;12308;50.948;4.706;2023-02-28T16:49:25;5.80;99.90
24146;DHT22;12308;50.948;4.706;2023-02-28T16:51:51;5.60;99.90
24146;DHT22;12308;50.948;4.706;2023-02-28T16:54:16;5.50;99.90
24146;DHT22;12308;50.948;4.706;2023-02-28T16:56:47;5.50;99.90
24146;DHT22;12308;50.948;4.706;2023-02-28T16:59:21;5.60;99.90
24146;DHT22;12308;50.948;4.706;2023-02-28T17:01:47;5.70;99.90
24146;DHT22;12308;50.948;4.706;2023-02-28T17:04:12;5.60;99.90
24146;DHT22;12308;50.948;4.706;2023-02-28T17:06:39;5.60;99.90
24146;DHT22;12308;50.948;4.706;2023-02-28T17:09:05;5.60;99.90
24146;DHT22;12308;50.948;4.706;2023-02-28T17:11:34;5.60;99.90
24146;DHT22;12308;50.948;4.706;2023-02-28T17:13:59;5.50;99.90
24146;DHT22;12308;50.948;4.706;2023-02-28T17:16:32;5.50;99.90
24146;DHT22;12308;50.948;4.706;2023-02-28T17:19:01;5.30;99.90
24146;DHT22;12308;50.948;4.706;2023-02-28T17:21:27;5.40;99.90
24146;DHT22;12308;50.948;4.706;2023-02-28T17:23:53;5.40;99.90
24146;DHT22;12308;50.948;4.706;2023-02-28T17:26:20;5.30;99.90
24146;DHT22;12308;50.948;4.706;2023-02-28T17:28:47;5.00;99.90
24146;DHT22;12308;50.948;4.706;2023-02-28T17:31:13;4.90;99.90
24146;DHT22;12308;50.948;4.706;2023-02-28T17:33:39;4.90;99.90
24146;DHT22;12308;50.948;4.706;2023-02-28T17:36:06;5.00;99.90
24146;DHT22;12308;50.948;4.706;2023-02-28T17:38:32;5.10;99.90
24146;DHT22;12308;50.948;4.706;2023-02-28T17:40:58;5.20;99.90
24146;DHT22;12308;50.948;4.706;2023-02-28T17:43:27;5.00;99.90
24146;DHT22;12308;50.948;4.706;2023-02-28T17:45:53;4.90;99.90
24146;DHT22;12308;50.948;4.706;2023-02-28T17:48:19;4.70;99.90
24146;DHT22;12308;50.948;4.706;2023-02-28T17:50:45;4.80;99.90
24146;DHT22;12308;50.948;4.706;2023-02-28T17:53:11;4.90;99.90
24146;DHT22;12308;50.948;4.706;2023-02-28T17:55:37;4.80;99.90
24146;DHT22;12308;50.948;4.706;2023-02-28T17:58:03;4.90;99.90
24146;DHT22;12308;50.948;4.706;2023-02-28T18:00:29;5.20;99.90
24146;DHT22;12308;50.948;4.706;2023-02-28T18:02:57;5.30;99.90
24146;DHT22;12308;50.948;4.706;2023-02-28T18:05:23;5.40;99.90
24146;DHT22;12308;50.948;4.706;2023-02-28T18:07:49;5.30;99.90
24146;DHT22;12308;50.948;4.706;2023-02-28T18:10:17;5.20;99.90
24146;DHT22;12308;50.948;4.706;2023-02-28T18:12:46;5.00;99.90
24146;DHT22;12308;50.948;4.706;2023-02-28T18:15:11;4.90;99.90
24146;DHT22;12308;50.948;4.706;2023-02-28T18:17:37;4.90;99.90
24146;DHT22;12308;50.948;4.706;2023-02-28T18:20:03;4.90;99.90
24146;DHT22;12308;50.948;4.706;2023-02-28T18:22:30;4.90;99.90
24146;DHT22;12308;50.948;4.706;2023-02-28T18:24:55;4.90;99.90
24146;DHT22;12308;50.948;4.706;2023-02-28T18:27:21;4.80;99.90
24146;DHT22;12308;50.948;4.706;2023-02-28T18:29:47;4.60;99.90
24146;DHT22;12308;50.948;4.706;2023-02-28T18:32:14;4.40;99.90
24146;DHT22;12308;50.948;4.706;2023-02-28T18:34:39;4.30;99.90
24146;DHT22;12308;50.948;4.706;2023-02-28T18:37:05;4.00;99.90
24146;DHT22;12308;50.948;4.706;2023-02-28T18:39:31;3.90;99.90
24146;DHT22;12308;50.948;4.706;2023-02-28T18:41:57;3.90;99.90
24146;DHT22;12308;50.948;4.706;2023-02-28T18:44:22;3.90;99.90
24146;DHT22;12308;50.948;4.706;2023-02-28T18:46:49;4.00;99.90